Time;durP1;ratioP1;P1;durP2;ratioP2;P2;SDS_P1;SDS_P2;PMS_P1;PMS_P2;Temp;Humidity;BMP_temperature;BMP_pressure;BME280_temperature;BME280_humidity;BME280_pressure;Samples;Min_cycle;Max_cycle;Signal;HPM_P1;HPM_P2
2023/02/27 00:02:21;;;;;;;24.70;5.97;;;;;;;15.17;100.00;99185.75;5053525;28;20028;-78
2023/02/27 00:04:46;;;;;;;18.88;5.68;;;;;;;15.42;100.00;99225.22;5070900;28;20036;-77
2023/02/27 00:07:12;;;;;;;21.08;6.10;;;;;;;15.20;100.00;99177.88;5072005;28;20139;-76
2023/02/27 00:09:39;;;;;;;20.33;5.40;;;;;;;15.17;100.00;99171.19;5053451;28;20028;-76
2023/02/27 00:12:05;;;;;;;21.65;6.07;;;;;;;14.99;100.00;99148.44;5053234;28;21131;-76
2023/02/27 00:14:30;;;;;;;19.38;5.38;;;;;;;15.49;100.00;99223.94;5053149;28;20032;-77
2023/02/27 00:16:55;;;;;;;14.77;5.03;;;;;;;15.61;100.00;99220.63;5053199;28;20036;-76
2023/02/27 00:19:21;;;;;;;21.80;5.55;;;;;;;15.30;100.00;99148.25;5053589;28;20060;-77
2023/02/27 00:21:46;;;;;;;19.48;5.57;;;;;;;15.60;100.00;99207.91;5071530;28;20097;-78
2023/02/27 00:24:12;;;;;;;22.63;5.68;;;;;;;15.38;100.00;99166.53;5071473;28;20753;-77
2023/02/27 00:26:38;;;;;;;20.33;5.38;;;;;;;15.63;100.00;99183.84;5071505;28;20025;-77
2023/02/27 00:29:05;;;;;;;21.00;5.43;;;;;;;15.58;100.00;99181.56;5053914;28;20528;-77
2023/02/27 00:31:30;;;;;;;22.48;5.32;;;;;;;15.37;100.00;99152.91;5054178;28;20033;-78
2023/02/27 00:33:56;;;;;;;19.10;4.97;;;;;;;15.34;100.00;99139.47;5071070;28;20091;-78
2023/02/27 00:36:21;;;;;;;18.60;5.20;;;;;;;15.59;100.00;99194.28;5071272;28;20037;-78
2023/02/27 00:38:47;;;;;;;19.48;5.03;;;;;;;15.06;100.00;99104.47;5071270;28;20036;-77
2023/02/27 00:41:12;;;;;;;19.00;5.10;;;;;;;15.35;100.00;99161.63;5071333;28;20186;-79
2023/02/27 00:43:38;;;;;;;25.73;5.82;;;;;;;15.63;100.00;99210.28;5071789;28;20119;-79
2023/02/27 00:46:04;;;;;;;17.73;5.22;;;;;;;15.58;100.00;99191.81;5071495;28;20469;-79
2023/02/27 00:48:29;;;;;;;19.75;5.15;;;;;;;15.43;100.00;99142.31;5053100;28;20392;-78
2023/02/27 00:50:55;;;;;;;21.98;5.38;;;;;;;15.44;100.00;99164.47;5053483;28;20029;-78
2023/02/27 00:53:20;;;;;;;21.55;5.15;;;;;;;15.74;100.00;99205.34;5053225;28;20029;-78
2023/02/27 00:55:46;;;;;;;23.45;5.32;;;;;;;15.76;100.00;99218.06;5070721;28;20036;-79
2023/02/27 00:58:11;;;;;;;19.77;4.93;;;;;;;15.74;100.00;99202.78;5053581;28;20055;-78
2023/02/27 01:00:37;;;;;;;18.20;4.93;;;;;;;15.63;100.00;99176.97;5053044;28;20434;-78
2023/02/27 01:03:03;;;;;;;22.77;4.93;;;;;;;15.76;100.00;99189.84;5053240;28;20020;-78
2023/02/27 01:05:28;;;;;;;17.15;5.28;;;;;;;15.75;100.00;99201.84;5054133;28;20039;-78
2023/02/27 01:07:54;;;;;;;22.38;5.80;;;;;;;15.74;100.00;99200.22;5057000;28;20135;-78
2023/02/27 01:10:20;;;;;;;21.55;5.55;;;;;;;15.70;100.00;99177.41;5075045;28;20531;-77
2023/02/27 01:12:45;;;;;;;23.05;6.07;;;;;;;15.36;100.00;99132.53;5056913;28;20024;-78
2023/02/27 01:15:11;;;;;;;24.10;6.03;;;;;;;15.69;100.00;99186.03;5074481;28;20024;-77
2023/02/27 01:17:36;;;;;;;25.77;5.82;;;;;;;15.65;100.00;99195.63;5074370;28;20024;-78
2023/02/27 01:20:03;;;;;;;29.23;6.50;;;;;;;15.13;100.00;99102.38;5056873;28;20024;-78
2023/02/27 01:22:28;;;;;;;25.60;5.95;;;;;;;15.55;100.00;99176.59;5073947;28;20125;-78
2023/02/27 01:24:54;;;;;;;25.48;6.18;;;;;;;15.31;100.00;99139.69;5074401;28;20075;-77
2023/02/27 01:27:19;;;;;;;21.95;5.97;;;;;;;15.65;100.00;99205.09;5074419;28;20039;-78
2023/02/27 01:29:44;;;;;;;23.83;6.10;;;;;;;15.31;100.00;99155.03;5074393;28;20033;-78
2023/02/27 01:32:10;;;;;;;27.83;6.10;;;;;;;15.61;100.00;99210.38;5074752;28;20403;-78
2023/02/27 01:34:35;;;;;;;21.10;5.95;;;;;;;15.61;100.00;99218.06;5074578;28;20090;-77
2023/02/27 01:37:01;;;;;;;31.52;6.00;;;;;;;15.49;100.00;99211.13;5056482;28;20143;-80
2023/02/27 01:39:27;;;;;;;20.38;6.05;;;;;;;15.18;100.00;99167.75;5056305;28;20082;-79
2023/02/27 01:41:52;;;;;;;23.15;5.53;;;;;;;15.43;100.00;99226.06;5056829;28;20028;-79
2023/02/27 01:44:17;;;;;;;27.98;5.97;;;;;;;15.31;100.00;99175.53;5056152;28;20032;-84
2023/02/27 01:46:43;;;;;;;19.40;5.57;;;;;;;15.25;100.00;99191.25;5055488;28;20032;-84
2023/02/27 01:49:15;;;;;;;25.33;5.65;;;;;;;15.29;100.00;99203.75;5055928;28;20058;-80
2023/02/27 01:51:50;;;;;;;19.60;5.93;;;;;;;15.17;100.00;99196.81;5073498;28;20020;-79
2023/02/27 01:54:19;;;;;;;28.55;5.90;;;;;;;15.42;100.00;99239.75;5056294;28;20086;-79
2023/02/27 01:56:46;;;;;;;22.30;5.88;;;;;;;15.21;100.00;99197.47;5074123;28;20024;-77
2023/02/27 01:59:11;;;;;;;22.88;5.15;;;;;;;15.40;100.00;99242.38;5055818;28;20041;-79
2023/02/27 02:01:37;;;;;;;24.95;6.03;;;;;;;15.11;100.00;99193.81;5056263;28;20059;-79
2023/02/27 02:04:28;;;;;;;25.95;5.80;;;;;;;15.44;100.00;99246.44;5073552;28;20123;-81
2023/02/27 02:07:12;;;;;;;25.80;5.82;;;;;;;15.38;100.00;99233.13;5055746;28;20045;-79
2023/02/27 02:09:42;;;;;;;24.40;5.93;;;;;;;15.42;100.00;99237.19;5074046;28;20051;-78
2023/02/27 02:12:11;;;;;;;22.92;5.93;;;;;;;15.41;100.00;99238.91;5056190;28;20063;-79
2023/02/27 02:14:36;;;;;;;22.00;5.88;;;;;;;15.36;100.00;99248.59;5074363;28;20036;-79
2023/02/27 02:17:21;;;;;;;23.17;5.43;;;;;;;15.17;100.00;99199.38;5072146;28;20036;-80
2023/02/27 02:20:07;;;;;;;30.08;6.25;;;;;;;15.45;100.00;99234.47;5056372;28;20094;-80
2023/02/27 02:23:07;;;;;;;25.85;6.05;;;;;;;15.38;100.00;99220.34;5074472;28;20086;-80
2023/02/27 02:25:44;;;;;;;26.20;6.10;;;;;;;15.14;100.00;99170.56;5074094;28;20028;-80
2023/02/27 02:28:22;;;;;;;24.63;5.97;;;;;;;15.32;100.00;99210.44;5073955;28;20116;-79
2023/02/27 02:31:06;;;;;;;25.58;5.90;;;;;;;15.29;100.00;99201.22;5073483;28;20502;-80
2023/02/27 02:33:52;;;;;;;27.55;6.00;;;;;;;15.01;100.00;99150.00;5056123;28;20127;-79
2023/02/27 02:36:20;;;;;;;27.05;6.20;;;;;;;15.27;100.00;99189.44;5055525;28;20039;-79
2023/02/27 02:39:13;;;;;;;24.10;5.97;;;;;;;14.95;100.00;99136.75;5055684;28;20127;-78
2023/02/27 02:41:55;;;;;;;26.70;5.93;;;;;;;15.26;100.00;99178.34;5055776;28;20553;-79
2023/02/27 02:44:46;;;;;;;23.67;6.57;;;;;;;15.24;100.00;99169.09;5055881;28;20041;-79
2023/02/27 02:47:37;;;;;;;27.25;7.07;;;;;;;15.16;100.00;99141.41;5073279;28;20041;-78
2023/02/27 02:50:17;;;;;;;24.25;6.80;;;;;;;15.10;100.00;99146.06;5055508;28;20034;-78
2023/02/27 02:53:00;;;;;;;27.73;6.70;;;;;;;15.01;100.00;99132.09;5073012;28;20130;-77
2023/02/27 02:55:53;;;;;;;33.28;10.57;;;;;;;14.99;100.00;99117.72;5055412;28;20033;-79
2023/02/27 02:58:27;;;;;;;35.10;9.80;;;;;;;14.90;100.00;99119.09;5072963;28;20127;-78
2023/02/27 03:01:10;;;;;;;24.00;7.35;;;;;;;14.92;100.00;99104.47;5073590;28;20170;-76
2023/02/27 03:03:43;;;;;;;40.97;8.85;;;;;;;14.76;100.00;99073.03;5072094;28;20028;-78
2023/02/27 03:06:15;;;;;;;33.33;8.27;;;;;;;14.86;100.00;99089.47;5055376;28;20098;-78
2023/02/27 03:08:50;;;;;;;22.85;8.40;;;;;;;14.40;100.00;99012.09;5055088;28;20039;-78
2023/02/27 03:11:16;;;;;;;27.75;8.23;;;;;;;14.72;100.00;99080.06;5055030;28;20028;-78
2023/02/27 03:13:51;;;;;;;29.35;8.18;;;;;;;14.45;100.00;99039.94;5072745;28;20471;-77
2023/02/27 03:16:21;;;;;;;34.67;8.63;;;;;;;14.75;100.00;99090.13;5072309;28;20044;-77
2023/02/27 03:18:55;;;;;;;31.20;8.65;;;;;;;14.40;100.00;99045.31;5072547;28;20055;-77
2023/02/27 03:21:29;;;;;;;32.08;8.20;;;;;;;14.60;100.00;99100.41;5072386;28;20036;-77
2023/02/27 03:23:59;;;;;;;32.15;8.70;;;;;;;14.29;100.00;99037.47;5054585;28;20060;-77
2023/02/27 03:26:32;;;;;;;31.77;12.13;;;;;;;14.52;100.00;99071.91;5054627;28;20021;-77
2023/02/27 03:29:06;;;;;;;38.83;13.73;;;;;;;13.92;100.00;98995.28;5054301;28;20479;-78
2023/02/27 03:31:47;;;;;;;30.60;9.75;;;;;;;14.38;100.00;99069.34;5054030;28;20391;-77
2023/02/27 03:34:31;;;;;;;28.67;7.90;;;;;;;14.33;100.00;99058.56;5069117;28;20036;-78
2023/02/27 03:37:13;;;;;;;25.95;8.68;;;;;;;14.28;100.00;99063.13;5072321;28;20081;-76
2023/02/27 03:39:48;;;;;;;27.42;8.00;;;;;;;14.27;100.00;99056.31;5054192;28;20028;-78
2023/02/27 03:42:19;;;;;;;34.35;8.70;;;;;;;13.88;100.00;98993.00;5071874;28;20072;-79
2023/02/27 03:45:19;;;;;;;39.05;8.02;;;;;;;14.26;100.00;99052.13;5072432;28;20032;-79
2023/02/27 03:47:45;;;;;;;29.58;7.10;;;;;;;14.11;100.00;99051.28;5069386;28;20036;-80
2023/02/27 03:50:10;;;;;;;34.42;7.75;;;;;;;13.84;100.00;98994.09;5054646;28;20073;-79
2023/02/27 03:52:36;;;;;;;30.08;7.35;;;;;;;13.68;100.00;98966.03;5054017;28;20036;-78
2023/02/27 03:55:19;;;;;;;32.38;7.57;;;;;;;14.19;100.00;99055.94;5048311;28;20036;-77
2023/02/27 03:57:47;;;;;;;26.38;6.60;;;;;;;13.91;100.00;99013.25;5051489;28;20025;-79
2023/02/27 04:00:18;;;;;;;29.50;7.40;;;;;;;13.93;100.00;99019.94;5051254;28;20025;-78
2023/02/27 04:02:45;;;;;;;29.23;8.15;;;;;;;13.81;100.00;98996.78;5068936;28;20548;-77
2023/02/27 04:05:11;;;;;;;30.98;7.45;;;;;;;13.75;100.00;99003.09;5053972;28;20028;-77
2023/02/27 04:07:47;;;;;;;24.65;7.05;;;;;;;14.08;100.00;99048.06;5053830;28;20462;-78
2023/02/27 04:10:43;;;;;;;29.08;7.40;;;;;;;14.06;100.00;99057.56;5071396;28;20025;-78
2023/02/27 04:13:29;;;;;;;33.10;7.07;;;;;;;14.02;100.00;99059.47;5054387;28;20043;-78
2023/02/27 04:16:16;;;;;;;27.60;7.05;;;;;;;14.06;100.00;99057.56;5053175;28;20037;-78
2023/02/27 04:18:56;;;;;;;31.27;7.68;;;;;;;13.77;100.00;99014.03;5070773;28;20113;-78
2023/02/27 04:21:48;;;;;;;28.95;6.85;;;;;;;13.98;100.00;99065.66;5052459;28;20138;-75
2023/02/27 04:24:51;;;;;;;25.25;6.53;;;;;;;14.03;100.00;99061.09;5054990;28;20037;-78
2023/02/27 04:27:30;;;;;;;34.70;7.57;;;;;;;13.96;100.00;99062.38;5069700;28;20029;-76
2023/02/27 04:30:17;;;;;;;32.05;8.02;;;;;;;13.93;100.00;99058.25;5053769;28;20028;-76
2023/02/27 04:33:03;;;;;;;28.33;7.93;;;;;;;13.93;100.00;99057.44;5068350;28;20032;-79
2023/02/27 04:35:38;;;;;;;31.17;7.25;;;;;;;13.63;100.00;99013.16;5058734;28;20036;-75
2023/02/27 04:38:03;;;;;;;30.42;7.35;;;;;;;14.00;100.00;99047.69;5056374;28;20475;-78
2023/02/27 04:40:35;;;;;;;34.05;7.40;;;;;;;13.91;100.00;99043.91;5054418;28;20036;-81
2023/02/27 04:43:04;;;;;;;34.47;7.55;;;;;;;13.83;100.00;99039.25;5075319;28;20537;-79
2023/02/27 04:45:34;;;;;;;27.75;6.65;;;;;;;13.74;100.00;98991.25;5075808;28;20035;-81
2023/02/27 04:48:18;;;;;;;32.28;7.25;;;;;;;13.66;100.00;98998.50;5057039;28;20032;-76
2023/02/27 04:50:53;;;;;;;31.20;7.43;;;;;;;13.73;100.00;98997.25;5074970;28;20035;-77
2023/02/27 04:53:25;;;;;;;31.45;7.95;;;;;;;13.76;100.00;98999.63;5056395;28;20032;-76
2023/02/27 04:55:55;;;;;;;28.50;7.50;;;;;;;13.76;100.00;98997.09;5056245;28;20060;-78
2023/02/27 04:58:27;;;;;;;35.33;11.93;;;;;;;14.10;100.00;99041.97;5057106;28;20460;-78
2023/02/27 05:01:04;;;;;;;33.53;10.18;;;;;;;13.81;100.00;98984.84;5074256;28;20036;-77
2023/02/27 05:03:38;;;;;;;35.38;8.40;;;;;;;13.80;100.00;98973.00;5074922;28;20025;-78
2023/02/27 05:06:03;;;;;;;27.70;7.25;;;;;;;14.04;100.00;98996.31;5056659;28;20514;-77
2023/02/27 05:08:33;;;;;;;30.98;7.45;;;;;;;14.06;100.00;99020.06;5074343;28;20029;-76
2023/02/27 05:11:10;;;;;;;35.95;6.80;;;;;;;14.02;100.00;99035.66;5074465;28;20452;-75
2023/02/27 05:13:50;;;;;;;28.15;7.55;;;;;;;13.99;100.00;99021.31;5074603;28;20043;-77
2023/02/27 05:16:25;;;;;;;28.38;7.45;;;;;;;13.66;100.00;98965.31;5071908;28;20082;-74
2023/02/27 05:18:52;;;;;;;26.25;7.72;;;;;;;14.07;100.00;99023.41;5063425;28;20029;-76
2023/02/27 05:21:32;;;;;;;41.80;12.05;;;;;;;13.93;100.00;99042.94;5054417;28;20025;-78
2023/02/27 05:24:00;;;;;;;54.80;20.48;;;;;;;13.98;100.00;99042.69;5063481;28;20564;-77
2023/02/27 05:26:47;;;;;;;41.97;16.75;;;;;;;13.82;100.00;99057.22;5056713;28;20036;-78
2023/02/27 05:29:21;;;;;;;35.17;11.95;;;;;;;13.95;100.00;99050.50;5056789;28;20396;-80
2023/02/27 05:31:53;;;;;;;36.55;10.77;;;;;;;13.98;100.00;99046.94;5074874;28;20036;-78
2023/02/27 05:34:46;;;;;;;37.85;10.70;;;;;;;13.97;100.00;99051.22;5056368;28;20464;-78
2023/02/27 05:37:19;;;;;;;35.28;11.18;;;;;;;13.70;100.00;99017.03;5066728;28;20037;-81
2023/02/27 05:39:51;;;;;;;36.33;9.55;;;;;;;14.38;100.00;99071.91;5074840;28;20028;-76
2023/02/27 05:42:27;;;;;;;35.65;8.68;;;;;;;14.19;100.00;99020.16;5074281;28;20029;-77
2023/02/27 05:45:08;;;;;;;37.42;8.88;;;;;;;14.76;100.00;99071.31;5074359;28;20029;-81
2023/02/27 05:47:38;;;;;;;35.40;8.68;;;;;;;14.67;100.00;99096.59;5073626;28;20032;-82
2023/02/27 05:50:10;;;;;;;36.95;8.75;;;;;;;14.50;100.00;99060.94;5056851;28;20028;-83
2023/02/27 05:52:37;;;;;;;;;;;;;;;14.73;100.00;99114.16;5056105;28;20549;-81
2023/02/27 05:55:21;;;;;;;39.85;8.70;;;;;;;14.74;100.00;99129.41;5073530;28;19935;-82
2023/02/27 05:57:58;;;;;;;45.22;9.32;;;;;;;14.56;100.00;99079.31;5074170;28;20040;-83
2023/02/27 06:00:34;;;;;;;33.38;8.13;;;;;;;14.83;100.00;99137.47;5056966;28;20036;-81
2023/02/27 06:02:59;;;;;;;36.55;9.00;;;;;;;14.84;100.00;99170.63;5074052;28;20106;-82
2023/02/27 06:05:26;;;;;;;42.72;10.20;;;;;;;14.97;100.00;99175.88;5055671;28;20479;-84
2023/02/27 06:07:52;;;;;;;40.45;8.88;;;;;;;14.91;100.00;99158.31;5055435;28;20428;-83
2023/02/27 06:10:19;;;;;;;39.40;9.32;;;;;;;14.64;100.00;99107.00;5055819;28;20033;-82
2023/02/27 06:12:44;;;;;;;49.47;11.88;;;;;;;15.12;100.00;99216.75;5055857;28;20450;-84
2023/02/27 06:15:11;;;;;;;43.30;10.35;;;;;;;14.60;100.00;99138.78;5055801;28;20086;-82
2023/02/27 06:17:37;;;;;;;38.20;9.10;;;;;;;15.07;100.00;99229.00;5073533;28;20064;-83
2023/02/27 06:20:04;;;;;;;42.83;9.25;;;;;;;15.25;100.00;99250.97;5056242;28;20037;-83
2023/02/27 06:22:29;;;;;;;47.13;11.50;;;;;;;14.74;100.00;99190.81;5073086;28;20032;-82
2023/02/27 06:24:55;;;;;;;47.40;11.30;;;;;;;15.23;100.00;99242.53;5056120;28;20029;-81
2023/02/27 06:27:20;;;;;;;40.53;9.30;;;;;;;15.14;100.00;99266.13;5055578;28;20448;-82
2023/02/27 06:29:45;;;;;;;45.47;10.15;;;;;;;15.10;100.00;99282.59;5056090;28;20024;-81
2023/02/27 06:32:11;;;;;;;42.15;10.02;;;;;;;15.00;100.00;99270.38;5055801;28;20407;-82
2023/02/27 06:34:36;;;;;;;42.38;11.05;;;;;;;14.96;100.00;99266.34;5055667;28;20032;-81
2023/02/27 06:37:02;;;;;;;45.15;12.02;;;;;;;14.52;100.00;99199.78;5055752;28;20032;-82
2023/02/27 06:39:27;;;;;;;46.50;10.95;;;;;;;15.04;100.00;99284.66;5055294;28;20032;-81
2023/02/27 06:41:53;;;;;;;46.00;11.85;;;;;;;15.06;100.00;99270.03;5073421;28;20540;-84
2023/02/27 06:44:18;;;;;;;47.78;14.98;;;;;;;15.04;100.00;99277.81;5073699;28;20035;-81
2023/02/27 06:46:44;;;;;;;47.40;13.63;;;;;;;15.09;100.00;99280.94;5055201;28;20028;-82
2023/02/27 06:49:10;;;;;;;47.55;12.20;;;;;;;15.13;100.00;99273.91;5055585;28;20031;-83
2023/02/27 06:51:35;;;;;;;46.05;15.68;;;;;;;15.26;100.00;99270.53;5073210;28;20494;-82
2023/02/27 06:54:00;;;;;;;51.40;14.40;;;;;;;15.00;100.00;99220.03;5054713;28;20038;-83
2023/02/27 06:56:26;;;;;;;50.08;16.08;;;;;;;15.32;100.00;99282.16;5054987;28;20029;-83
2023/02/27 06:58:51;;;;;;;58.33;18.70;;;;;;;14.92;100.00;99200.91;5073041;28;20092;-83
2023/02/27 07:01:17;;;;;;;53.30;17.85;;;;;;;15.28;100.00;99232.03;5055017;28;20033;-82
2023/02/27 07:03:42;;;;;;;57.00;16.85;;;;;;;15.36;100.00;99246.03;5071592;28;20031;-82
2023/02/27 07:06:08;;;;;;;63.35;20.85;;;;;;;15.55;100.00;99302.97;5054806;28;20057;-83
2023/02/27 07:08:34;;;;;;;32.03;8.80;;;;;;;15.55;100.00;99297.03;5055315;28;20063;-83
2023/02/27 07:11:02;;;;;;;23.92;5.32;;;;;;;15.46;100.00;99277.91;5055587;28;20029;-83
2023/02/27 07:13:27;;;;;;;22.67;4.13;;;;;;;15.71;100.00;99351.59;5072266;28;20127;-82
2023/02/27 07:15:53;;;;;;;17.48;3.85;;;;;;;15.78;100.00;99401.59;5054347;28;20028;-82
2023/02/27 07:18:19;;;;;;;11.82;3.30;;;;;;;15.53;100.00;99386.81;5054541;28;20031;-82
2023/02/27 07:20:44;;;;;;;13.93;4.45;;;;;;;16.10;100.00;99461.25;5072157;28;20448;-84
2023/02/27 07:23:09;;;;;;;14.57;3.05;;;;;;;16.14;100.00;99514.81;5071711;28;20491;-82
2023/02/27 07:25:35;;;;;;;15.75;3.05;;;;;;;16.23;100.00;99526.28;5054711;28;20571;-84
2023/02/27 07:28:01;;;;;;;11.60;3.35;;;;;;;16.36;100.00;99542.63;5054387;28;20101;-82
2023/02/27 07:30:27;;;;;;;15.80;4.50;;;;;;;16.58;100.00;99508.84;5072661;28;20123;-83
2023/02/27 07:32:52;;;;;;;12.60;3.13;;;;;;;16.77;100.00;99530.75;5054750;28;20029;-82
2023/02/27 07:35:18;;;;;;;10.57;3.05;;;;;;;17.08;100.00;99532.25;5072490;28;20524;-83
2023/02/27 07:37:45;;;;;;;9.10;2.42;;;;;;;17.23;100.00;99611.78;5054810;28;20032;-84
2023/02/27 07:40:11;;;;;;;7.50;2.10;;;;;;;17.66;100.00;99652.88;5072135;28;20099;-83
2023/02/27 07:42:36;;;;;;;10.63;1.92;;;;;;;17.16;100.00;99697.03;5072098;28;20029;-83
2023/02/27 07:45:02;;;;;;;10.25;2.30;;;;;;;17.07;100.00;99654.72;5054449;28;20545;-80
2023/02/27 07:47:29;;;;;;;13.70;4.13;;;;;;;17.75;100.00;99658.25;5072718;28;20032;-81
2023/02/27 07:49:55;;;;;;;8.57;3.13;;;;;;;18.13;100.00;99743.34;5070588;28;20064;-81
2023/02/27 07:52:20;;;;;;;14.93;3.00;;;;;;;18.36;100.00;99765.06;5071719;28;20048;-81
2023/02/27 07:54:45;;;;;;;13.55;4.25;;;;;;;17.82;100.00;99784.75;5054715;28;20043;-82
2023/02/27 07:57:11;;;;;;;8.38;1.90;;;;;;;18.02;100.00;99802.38;5054060;28;20096;-84
2023/02/27 07:59:36;;;;;;;13.45;2.58;;;;;;;18.10;100.00;99764.13;5071454;28;20123;-80
2023/02/27 08:02:02;;;;;;;12.63;4.35;;;;;;;17.57;100.00;99794.84;5054551;28;20109;-81
2023/02/27 08:04:27;;;;;;;12.73;2.30;;;;;;;17.44;100.00;99823.00;5054155;28;20103;-82
2023/02/27 08:06:53;;;;;;;9.02;2.90;;;;;;;17.91;100.00;99779.03;5071363;28;20083;-81
2023/02/27 08:09:18;;;;;;;8.50;2.17;;;;;;;17.89;100.00;99779.13;5053985;28;20031;-81
2023/02/27 08:11:44;;;;;;;11.23;5.65;;;;;;;18.24;100.00;99849.03;5054020;28;20043;-82
2023/02/27 08:14:09;;;;;;;5.75;1.80;;;;;;;18.01;100.00;99821.28;5054265;28;20068;-81
2023/02/27 08:16:35;;;;;;;10.48;2.85;;;;;;;18.51;100.00;99849.09;5054090;28;20036;-81
2023/02/27 08:19:00;;;;;;;6.65;1.60;;;;;;;17.78;100.00;99807.25;5053782;28;20115;-81
2023/02/27 08:21:26;;;;;;;6.82;2.33;;;;;;;18.63;100.00;99861.19;5053656;28;20025;-82
2023/02/27 08:23:52;;;;;;;9.10;2.17;;;;;;;17.56;100.00;99821.47;5071320;28;20036;-81
2023/02/27 08:26:17;;;;;;;8.57;2.90;;;;;;;17.94;100.00;99848.31;5053760;28;20036;-83
2023/02/27 08:28:43;;;;;;;11.10;4.40;;;;;;;18.08;100.00;99902.34;5053853;28;20039;-80
2023/02/27 08:31:08;;;;;;;7.00;2.40;;;;;;;17.72;100.00;99884.78;5053422;28;20036;-80
2023/02/27 08:33:34;;;;;;;6.40;2.53;;;;;;;18.42;100.00;99898.56;5053630;28;20032;-81
2023/02/27 08:36:00;;;;;;;18.27;4.68;;;;;;;18.85;100.00;99919.00;5053677;28;20486;-81
2023/02/27 08:38:25;;;;;;;8.98;2.08;;;;;;;18.80;100.00;99927.94;5053158;28;20487;-81
2023/02/27 08:40:53;;;;;;;7.22;1.58;;;;;;;18.08;100.00;99928.09;5053773;28;20032;-81
2023/02/27 08:43:20;;;;;;;5.88;1.70;;;;;;;18.83;100.00;99928.59;5053682;28;20086;-79
2023/02/27 08:45:46;;;;;;;7.72;1.60;;;;;;;18.82;100.00;99946.69;5071538;28;20036;-80
2023/02/27 08:48:14;;;;;;;9.77;1.52;;;;;;;18.71;100.00;99913.91;5071257;28;20044;-80
2023/02/27 08:50:40;;;;;;;7.60;2.63;;;;;;;18.25;100.00;99971.66;5053625;28;20046;-79
2023/02/27 08:53:06;;;;;;;8.95;2.58;;;;;;;18.57;100.00;99962.84;5053446;28;20111;-80
2023/02/27 08:55:31;;;;;;;6.45;1.60;;;;;;;18.46;100.00;99967.81;5071347;28;20613;-80
2023/02/27 08:57:57;;;;;;;9.65;2.30;;;;;;;18.39;100.00;99938.19;5053237;28;20636;-80
2023/02/27 09:00:22;;;;;;;12.25;2.67;;;;;;;18.52;100.00;99948.59;5053767;28;20476;-76
2023/02/27 09:02:48;;;;;;;15.23;2.63;;;;;;;18.50;100.00;99914.41;5053155;28;20044;-80
2023/02/27 09:05:13;;;;;;;14.88;4.85;;;;;;;18.65;100.00;99926.31;5053694;28;20082;-82
2023/02/27 09:07:39;;;;;;;14.00;3.70;;;;;;;19.11;100.00;99968.06;5053274;28;20106;-80
2023/02/27 09:10:06;;;;;;;17.98;5.07;;;;;;;19.11;100.00;99983.53;5071101;28;20066;-79
2023/02/27 09:12:31;;;;;;;18.40;3.38;;;;;;;19.51;100.00;99970.59;5052572;28;20029;-79
2023/02/27 09:14:57;;;;;;;19.35;4.07;;;;;;;19.63;100.00;99967.25;5053264;28;20576;-79
2023/02/27 09:17:22;;;;;;;17.90;3.75;;;;;;;19.40;100.00;99979.97;5071427;28;20040;-81
2023/02/27 09:19:50;;;;;;;21.55;3.78;;;;;;;18.67;100.00;99903.88;5053125;28;20056;-81
2023/02/27 09:22:15;;;;;;;16.00;3.78;;;;;;;19.62;100.00;99988.81;5053482;28;20036;-80
2023/02/27 09:24:41;;;;;;;18.45;3.55;;;;;;;19.27;100.00;99933.50;5053357;28;20119;-82
2023/02/27 09:27:06;;;;;;;22.42;3.95;;;;;;;19.37;100.00;99965.50;5054471;28;20032;-80
2023/02/27 09:29:31;;;;;;;20.95;3.25;;;;;;;18.91;100.00;99897.19;5056715;28;20114;-81
2023/02/27 09:31:57;;;;;;;16.15;2.40;;;;;;;19.38;100.00;99986.97;5057069;28;20032;-81
2023/02/27 09:34:22;;;;;;;18.52;3.75;;;;;;;19.15;100.00;99948.91;5056930;28;20033;-81
2023/02/27 09:36:48;;;;;;;14.88;3.22;;;;;;;19.66;100.00;100003.16;5074510;28;20032;-79
2023/02/27 09:39:13;;;;;;;13.68;3.08;;;;;;;18.39;100.00;99970.81;5074176;28;20035;-79
2023/02/27 09:42:04;;;;;;;17.55;3.13;;;;;;;19.07;100.00;99964.03;5074861;28;20407;-79
2023/02/27 09:44:41;;;;;;;19.48;3.00;;;;;;;19.22;100.00;100030.91;5056474;28;20029;-80
2023/02/27 09:47:13;;;;;;;21.20;5.25;;;;;;;18.94;100.00;99987.16;5056935;28;20434;-80
2023/02/27 09:50:03;;;;;;;16.60;3.38;;;;;;;18.95;100.00;100025.75;5074666;28;20085;-80
2023/02/27 09:52:31;;;;;;;27.20;4.00;;;;;;;18.31;100.00;99935.25;5074641;28;20059;-79
2023/02/27 09:54:56;;;;;;;21.55;5.18;;;;;;;19.08;100.00;99981.97;5073468;28;20478;-78
2023/02/27 09:57:38;;;;;;;27.10;4.45;;;;;;;19.43;100.00;100027.00;5055941;28;20094;-79
2023/02/27 10:00:12;;;;;;;22.83;4.10;;;;;;;19.09;100.00;99957.03;5056448;28;20028;-80
2023/02/27 10:02:43;;;;;;;22.15;4.40;;;;;;;18.24;100.00;99967.44;5074123;28;20036;-79
2023/02/27 10:05:54;;;;;;;20.08;3.20;;;;;;;19.13;100.00;100018.63;5056407;28;20066;-79
2023/02/27 10:08:33;;;;;;;18.17;4.22;;;;;;;18.32;100.00;99966.97;5073745;28;20044;-77
2023/02/27 10:11:06;;;;;;;21.73;4.32;;;;;;;18.79;100.00;100011.31;5056109;28;20415;-80
2023/02/27 10:13:34;;;;;;;26.05;6.43;;;;;;;18.80;100.00;100007.78;5073853;28;20028;-77
2023/02/27 10:16:02;;;;;;;21.73;4.00;;;;;;;18.02;100.00;99947.28;5055996;28;20040;-75
2023/02/27 10:18:29;;;;;;;17.65;3.75;;;;;;;19.03;100.00;100010.59;5056035;28;20032;-75
2023/02/27 10:21:05;;;;;;;20.65;4.35;;;;;;;19.31;100.00;100011.47;5055840;28;20098;-74
2023/02/27 10:23:52;;;;;;;19.58;4.70;;;;;;;19.15;100.00;100011.63;5054146;28;20124;-74
2023/02/27 10:26:34;;;;;;;21.50;4.05;;;;;;;19.19;100.00;100002.78;5073652;28;20039;-75
2023/02/27 10:29:12;;;;;;;20.27;4.13;;;;;;;19.19;100.00;99966.69;5070501;28;20054;-75
2023/02/27 10:31:39;;;;;;;21.17;3.63;;;;;;;19.59;100.00;99957.25;4703846;28;10000479;-74
2023/02/27 10:34:04;;;;;;;33.35;5.15;;;;;;;19.74;100.00;100007.81;5050972;28;20035;-74
2023/02/27 10:36:30;;;;;;;28.63;4.97;;;;;;;19.79;100.00;99967.88;5071388;28;20025;-74
2023/02/27 10:39:00;;;;;;;27.35;4.40;;;;;;;19.69;100.00;99982.31;5051579;28;20032;-76
2023/02/27 10:41:26;;;;;;;21.65;4.47;;;;;;;19.21;100.00;100013.81;5070336;28;20036;-77
2023/02/27 10:43:56;;;;;;;26.45;4.40;;;;;;;18.92;100.00;99943.47;5073068;28;20438;-73
2023/02/27 10:46:26;;;;;;;25.15;4.25;;;;;;;19.64;100.00;99901.00;5055113;28;20021;-78
2023/02/27 10:48:52;;;;;;;23.63;5.20;;;;;;;20.55;100.00;99984.25;5055318;28;20028;-77
2023/02/27 10:51:29;;;;;;;31.67;4.60;;;;;;;19.95;100.00;100014.16;5055096;28;20024;-77
2023/02/27 10:54:30;;;;;;;27.23;4.90;;;;;;;19.52;100.00;99999.81;5073558;28;20498;-78
2023/02/27 10:56:58;;;;;;;21.60;5.00;;;;;;;19.77;100.00;99906.97;4975198;28;20490;-77
2023/02/27 10:59:25;;;;;;;28.00;5.75;;;;;;;20.00;100.00;100006.94;5057584;28;20049;-77
2023/02/27 11:02:02;;;;;;;26.15;4.82;;;;;;;19.85;100.00;99992.47;5073330;28;20349;-76
2023/02/27 11:04:36;;;;;;;26.73;5.38;;;;;;;19.09;100.00;99986.22;5072901;28;20123;-77
2023/02/27 11:07:08;;;;;;;26.25;4.53;;;;;;;19.90;100.00;99990.41;5054858;28;20056;-77
2023/02/27 11:09:35;;;;;;;31.85;5.65;;;;;;;19.40;100.00;99936.97;5069746;28;20045;-79
2023/02/27 11:12:23;;;;;;;31.77;7.65;;;;;;;19.89;100.00;99979.25;5072700;28;20037;-78
2023/02/27 11:14:57;;;;;;;24.10;5.07;;;;;;;19.73;100.00;99983.78;5072760;28;20077;-79
2023/02/27 11:17:27;;;;;;;31.75;6.03;;;;;;;19.68;100.00;99979.84;5054836;28;20097;-77
2023/02/27 11:19:53;;;;;;;31.45;6.10;;;;;;;19.18;100.00;99926.34;5072828;28;20028;-78
2023/02/27 11:22:23;;;;;;;30.30;6.88;;;;;;;19.05;100.00;99921.13;5073050;28;20033;-79
2023/02/27 11:24:50;;;;;;;34.70;6.13;;;;;;;19.65;100.00;99925.84;5055022;28;20036;-78
2023/02/27 11:27:25;;;;;;;29.35;5.93;;;;;;;19.81;100.00;99949.72;5054295;28;20082;-79
2023/02/27 11:30:00;;;;;;;44.60;8.52;;;;;;;19.79;100.00;99939.50;5055216;28;20024;-78
2023/02/27 11:32:56;;;;;;;35.75;7.45;;;;;;;20.14;100.00;99972.47;5054418;28;20115;-78
2023/02/27 11:35:28;;;;;;;35.08;6.70;;;;;;;20.06;100.00;99928.25;5067443;28;20040;-78